sensor_id;sensor_type;location;lat;lon;timestamp;pressure;altitude;pressure_sealevel;temperature;humidity
17764;BME280;22245;52.832;13.816;2023-04-19T00:02:46;102675.66;;;7.42;56.11
17764;BME280;22245;52.832;13.816;2023-04-19T00:06:08;102676.63;;;7.39;55.88
17764;BME280;22245;52.832;13.816;2023-04-19T00:09:30;102678.47;;;7.37;56.35
17764;BME280;22245;52.832;13.816;2023-04-19T00:12:52;102666.03;;;7.39;55.97
17764;BME280;22245;52.832;13.816;2023-04-19T00:16:13;102669.56;;;7.40;55.89
17764;BME280;22245;52.832;13.816;2023-04-19T00:19:37;102662.56;;;7.37;55.46
17764;BME280;22245;52.832;13.816;2023-04-19T00:22:58;102654.88;;;7.31;55.71
17764;BME280;22245;52.832;13.816;2023-04-19T00:26:21;102654.13;;;7.28;56.19
17764;BME280;22245;52.832;13.816;2023-04-19T00:29:44;102656.84;;;7.26;56.24
17764;BME280;22245;52.832;13.816;2023-04-19T00:33:06;102656.78;;;7.28;56.22
17764;BME280;22245;52.832;13.816;2023-04-19T00:36:33;102649.75;;;7.27;56.22
17764;BME280;22245;52.832;13.816;2023-04-19T00:39:55;102649.97;;;7.22;55.88
17764;BME280;22245;52.832;13.816;2023-04-19T00:43:19;102656.28;;;7.18;55.84
17764;BME280;22245;52.832;13.816;2023-04-19T00:46:41;102639.78;;;7.11;55.68
17764;BME280;22245;52.832;13.816;2023-04-19T00:50:05;102648.03;;;7.03;56.14
17764;BME280;22245;52.832;13.816;2023-04-19T00:53:29;102643.94;;;6.94;56.63
17764;BME280;22245;52.832;13.816;2023-04-19T00:56:50;102636.19;;;6.90;56.62
17764;BME280;22245;52.832;13.816;2023-04-19T01:00:13;102636.44;;;6.84;56.49
17764;BME280;22245;52.832;13.816;2023-04-19T01:03:37;102641.97;;;6.77;56.69
17764;BME280;22245;52.832;13.816;2023-04-19T01:07:00;102634.13;;;6.74;56.37
17764;BME280;22245;52.832;13.816;2023-04-19T01:10:23;102636.09;;;6.69;56.47
17764;BME280;22245;52.832;13.816;2023-04-19T01:13:45;102634.50;;;6.65;56.89
17764;BME280;22245;52.832;13.816;2023-04-19T01:17:07;102631.97;;;6.62;56.47
17764;BME280;22245;52.832;13.816;2023-04-19T01:20:29;102634.72;;;6.59;56.66
17764;BME280;22245;52.832;13.816;2023-04-19T01:23:52;102627.75;;;6.56;56.69
17764;BME280;22245;52.832;13.816;2023-04-19T01:27:15;102629.59;;;6.54;56.49
17764;BME280;22245;52.832;13.816;2023-04-19T01:30:37;102624.44;;;6.51;57.04
17764;BME280;22245;52.832;13.816;2023-04-19T01:33:59;102620.25;;;6.45;56.96
17764;BME280;22245;52.832;13.816;2023-04-19T01:37:20;102616.06;;;6.38;57.17
17764;BME280;22245;52.832;13.816;2023-04-19T01:40:44;102614.47;;;6.34;57.46
17764;BME280;22245;52.832;13.816;2023-04-19T01:44:06;102614.66;;;6.29;57.28
17764;BME280;22245;52.832;13.816;2023-04-19T01:47:28;102601.59;;;6.25;57.57
17764;BME280;22245;52.832;13.816;2023-04-19T01:50:50;102598.19;;;6.21;58.09
17764;BME280;22245;52.832;13.816;2023-04-19T01:54:12;102589.31;;;6.22;57.72
17764;BME280;22245;52.832;13.816;2023-04-19T01:57:35;102584.16;;;6.19;58.38
17764;BME280;22245;52.832;13.816;2023-04-19T02:00:57;102585.19;;;6.15;58.23
17764;BME280;22245;52.832;13.816;2023-04-19T02:04:19;102582.59;;;6.13;58.51
17764;BME280;22245;52.832;13.816;2023-04-19T02:07:42;102573.06;;;6.09;58.73
17764;BME280;22245;52.832;13.816;2023-04-19T02:11:05;102573.16;;;6.06;59.26
17764;BME280;22245;52.832;13.816;2023-04-19T02:14:29;102568.13;;;5.98;59.41
17764;BME280;22245;52.832;13.816;2023-04-19T02:17:51;102557.81;;;5.90;59.83
17764;BME280;22245;52.832;13.816;2023-04-19T02:21:13;102557.28;;;5.80;60.57
17764;BME280;22245;52.832;13.816;2023-04-19T02:24:35;102556.66;;;5.74;61.08
17764;BME280;22245;52.832;13.816;2023-04-19T02:27:57;102551.53;;;5.69;61.49
17764;BME280;22245;52.832;13.816;2023-04-19T02:31:19;102541.91;;;5.67;61.87
17764;BME280;22245;52.832;13.816;2023-04-19T02:34:42;102536.72;;;5.63;62.54
17764;BME280;22245;52.832;13.816;2023-04-19T02:38:04;102542.25;;;5.57;63.12
17764;BME280;22245;52.832;13.816;2023-04-19T02:41:26;102535.34;;;5.53;63.47
17764;BME280;22245;52.832;13.816;2023-04-19T02:44:47;102540.72;;;5.50;63.96
17764;BME280;22245;52.832;13.816;2023-04-19T02:48:11;102535.44;;;5.50;64.37
17764;BME280;22245;52.832;13.816;2023-04-19T02:51:33;102530.28;;;5.47;64.48
17764;BME280;22245;52.832;13.816;2023-04-19T02:54:54;102525.84;;;5.47;65.12
17764;BME280;22245;52.832;13.816;2023-04-19T02:58:16;102527.66;;;5.45;65.20
17764;BME280;22245;52.832;13.816;2023-04-19T03:01:57;102515.56;;;5.40;65.60
17764;BME280;22245;52.832;13.816;2023-04-19T03:05:20;102518.41;;;5.33;66.23
17764;BME280;22245;52.832;13.816;2023-04-19T03:08:42;102506.13;;;5.32;66.01
17764;BME280;22245;52.832;13.816;2023-04-19T03:12:05;102514.84;;;5.34;66.27
17764;BME280;22245;52.832;13.816;2023-04-19T03:15:27;102502.56;;;5.33;66.97
17764;BME280;22245;52.832;13.816;2023-04-19T03:18:49;102511.41;;;5.32;66.92
17764;BME280;22245;52.832;13.816;2023-04-19T03:22:17;102505.31;;;5.30;67.25
17764;BME280;22245;52.832;13.816;2023-04-19T03:25:38;102503.56;;;5.29;67.37
17764;BME280;22245;52.832;13.816;2023-04-19T03:29:20;102497.47;;;5.27;67.63
17764;BME280;22245;52.832;13.816;2023-04-19T03:32:47;102496.72;;;5.24;68.19
17764;BME280;22245;52.832;13.816;2023-04-19T03:36:09;102496.72;;;5.24;68.11
17764;BME280;22245;52.832;13.816;2023-04-19T03:39:35;102489.72;;;5.22;68.54
17764;BME280;22245;52.832;13.816;2023-04-19T03:43:00;102487.22;;;5.18;68.73
17764;BME280;22245;52.832;13.816;2023-04-19T03:46:24;102490.78;;;5.17;68.95
17764;BME280;22245;52.832;13.816;2023-04-19T03:49:47;102490.03;;;5.13;69.65
17764;BME280;22245;52.832;13.816;2023-04-19T03:53:10;102487.47;;;5.10;69.88
17764;BME280;22245;52.832;13.816;2023-04-19T03:56:33;102486.72;;;5.06;70.28
17764;BME280;22245;52.832;13.816;2023-04-19T03:59:56;102486.84;;;5.03;70.63
17764;BME280;22245;52.832;13.816;2023-04-19T04:03:19;102483.38;;;5.01;70.78
17764;BME280;22245;52.832;13.816;2023-04-19T04:06:41;102482.69;;;4.96;71.11
17764;BME280;22245;52.832;13.816;2023-04-19T04:10:07;102481.03;;;4.92;72.04
17764;BME280;22245;52.832;13.816;2023-04-19T04:13:35;102470.56;;;4.89;72.34
17764;BME280;22245;52.832;13.816;2023-04-19T04:17:10;102477.78;;;4.84;72.63
17764;BME280;22245;52.832;13.816;2023-04-19T04:20:34;102467.22;;;4.84;73.25
17764;BME280;22245;52.832;13.816;2023-04-19T04:24:00;102466.28;;;4.86;73.09
17764;BME280;22245;52.832;13.816;2023-04-19T04:27:49;102452.97;;;4.89;72.99
17764;BME280;22245;52.832;13.816;2023-04-19T04:31:15;102458.28;;;4.88;73.60
17764;BME280;22245;52.832;13.816;2023-04-19T04:34:39;102451.41;;;4.84;73.62
17764;BME280;22245;52.832;13.816;2023-04-19T04:38:06;102454.91;;;4.84;73.73
17764;BME280;22245;52.832;13.816;2023-04-19T04:41:43;102458.38;;;4.86;73.63
17764;BME280;22245;52.832;13.816;2023-04-19T04:45:06;102448.66;;;4.87;73.77
17764;BME280;22245;52.832;13.816;2023-04-19T04:48:33;102457.44;;;4.87;73.63
17764;BME280;22245;52.832;13.816;2023-04-19T04:51:56;102451.91;;;4.95;73.47
17764;BME280;22245;52.832;13.816;2023-04-19T04:55:21;102449.06;;;5.01;73.36
17764;BME280;22245;52.832;13.816;2023-04-19T04:58:43;102447.00;;;5.10;73.16
17764;BME280;22245;52.832;13.816;2023-04-19T05:02:10;102447.78;;;5.13;72.89
17764;BME280;22245;52.832;13.816;2023-04-19T05:05:33;102437.09;;;5.16;72.56
17764;BME280;22245;52.832;13.816;2023-04-19T05:08:55;102438.66;;;5.22;72.60
17764;BME280;22245;52.832;13.816;2023-04-19T05:12:24;102435.84;;;5.27;72.48
17764;BME280;22245;52.832;13.816;2023-04-19T05:15:45;102435.59;;;5.34;72.00
17764;BME280;22245;52.832;13.816;2023-04-19T05:19:08;102430.13;;;5.39;72.05
17764;BME280;22245;52.832;13.816;2023-04-19T05:22:37;102432.66;;;5.42;71.84
17764;BME280;22245;52.832;13.816;2023-04-19T05:26:01;102429.09;;;5.43;71.66
17764;BME280;22245;52.832;13.816;2023-04-19T05:29:23;102413.06;;;5.48;71.64
17764;BME280;22245;52.832;13.816;2023-04-19T05:32:47;102413.88;;;5.50;71.43
17764;BME280;22245;52.832;13.816;2023-04-19T05:36:10;102411.94;;;5.55;71.79
17764;BME280;22245;52.832;13.816;2023-04-19T05:39:33;102410.97;;;5.58;71.20
17764;BME280;22245;52.832;13.816;2023-04-19T05:42:55;102414.28;;;5.63;70.74
17764;BME280;22245;52.832;13.816;2023-04-19T05:46:17;102395.66;;;5.66;70.74
17764;BME280;22245;52.832;13.816;2023-04-19T05:49:39;102410.56;;;5.69;70.33
17764;BME280;22245;52.832;13.816;2023-04-19T05:53:10;102409.41;;;5.76;70.09
17764;BME280;22245;52.832;13.816;2023-04-19T05:56:34;102405.59;;;5.83;70.10
17764;BME280;22245;52.832;13.816;2023-04-19T05:59:55;102400.03;;;5.91;69.07
17764;BME280;22245;52.832;13.816;2023-04-19T06:03:22;102406.97;;;5.93;69.52
17764;BME280;22245;52.832;13.816;2023-04-19T06:06:50;102398.69;;;6.03;68.95
17764;BME280;22245;52.832;13.816;2023-04-19T06:10:12;102399.50;;;6.05;68.64
17764;BME280;22245;52.832;13.816;2023-04-19T06:13:36;102392.13;;;6.13;68.30
17764;BME280;22245;52.832;13.816;2023-04-19T06:16:57;102381.31;;;6.19;68.03
17764;BME280;22245;52.832;13.816;2023-04-19T06:20:19;102386.59;;;6.19;67.60
17764;BME280;22245;52.832;13.816;2023-04-19T06:23:41;102389.91;;;6.25;67.79
17764;BME280;22245;52.832;13.816;2023-04-19T06:27:03;102382.66;;;6.30;67.87
17764;BME280;22245;52.832;13.816;2023-04-19T06:30:26;102383.97;;;6.40;67.02
17764;BME280;22245;52.832;13.816;2023-04-19T06:33:48;102363.28;;;6.50;66.25
17764;BME280;22245;52.832;13.816;2023-04-19T06:37:10;102373.63;;;6.56;66.35
17764;BME280;22245;52.832;13.816;2023-04-19T06:40:31;102374.22;;;6.63;66.47
17764;BME280;22245;52.832;13.816;2023-04-19T06:43:53;102380.97;;;6.70;65.70
17764;BME280;22245;52.832;13.816;2023-04-19T06:47:16;102376.22;;;6.78;65.74
17764;BME280;22245;52.832;13.816;2023-04-19T06:50:38;102371.38;;;6.88;64.18
17764;BME280;22245;52.832;13.816;2023-04-19T06:53:59;102366.75;;;6.93;63.88
17764;BME280;22245;52.832;13.816;2023-04-19T06:57:21;102357.69;;;6.99;64.27
17764;BME280;22245;52.832;13.816;2023-04-19T07:00:43;102343.22;;;7.06;63.79
17764;BME280;22245;52.832;13.816;2023-04-19T07:04:06;102345.44;;;7.16;62.36
17764;BME280;22245;52.832;13.816;2023-04-19T07:07:28;102339.13;;;7.20;61.36
17764;BME280;22245;52.832;13.816;2023-04-19T07:10:50;102340.59;;;7.26;61.28
17764;BME280;22245;52.832;13.816;2023-04-19T07:14:12;102341.97;;;7.34;60.52
17764;BME280;22245;52.832;13.816;2023-04-19T07:17:34;102340.75;;;7.42;59.55
17764;BME280;22245;52.832;13.816;2023-04-19T07:20:58;102323.56;;;7.50;59.93
17764;BME280;22245;52.832;13.816;2023-04-19T07:24:20;102339.03;;;7.60;58.81
17764;BME280;22245;52.832;13.816;2023-04-19T07:27:42;102326.22;;;7.70;57.79
17764;BME280;22245;52.832;13.816;2023-04-19T07:31:04;102322.53;;;7.72;58.59
17764;BME280;22245;52.832;13.816;2023-04-19T07:34:26;102311.28;;;7.86;57.62
17764;BME280;22245;52.832;13.816;2023-04-19T07:37:49;102325.13;;;7.93;56.68
17764;BME280;22245;52.832;13.816;2023-04-19T07:41:11;102320.38;;;8.00;56.46
17764;BME280;22245;52.832;13.816;2023-04-19T07:44:33;102316.47;;;8.07;56.71
17764;BME280;22245;52.832;13.816;2023-04-19T07:47:55;102316.88;;;8.17;56.41
17764;BME280;22245;52.832;13.816;2023-04-19T07:51:16;102308.53;;;8.24;56.50
17764;BME280;22245;52.832;13.816;2023-04-19T07:54:40;102295.59;;;8.36;55.32
17764;BME280;22245;52.832;13.816;2023-04-19T07:58:02;102293.63;;;8.39;55.16
17764;BME280;22245;52.832;13.816;2023-04-19T08:01:24;102302.91;;;8.48;54.53
17764;BME280;22245;52.832;13.816;2023-04-19T08:04:45;102294.75;;;8.53;54.55
17764;BME280;22245;52.832;13.816;2023-04-19T08:08:09;102313.09;;;8.58;53.66
17764;BME280;22245;52.832;13.816;2023-04-19T08:11:33;102290.75;;;8.62;53.69
17764;BME280;22245;52.832;13.816;2023-04-19T08:14:55;102303.78;;;8.66;53.58
17764;BME280;22245;52.832;13.816;2023-04-19T08:18:34;102284.94;;;8.71;52.81
17764;BME280;22245;52.832;13.816;2023-04-19T08:21:56;102308.78;;;8.73;52.56
17764;BME280;22245;52.832;13.816;2023-04-19T08:25:17;102274.84;;;8.78;52.39
17764;BME280;22245;52.832;13.816;2023-04-19T08:28:40;102267.25;;;8.88;53.03
17764;BME280;22245;52.832;13.816;2023-04-19T08:32:03;102280.03;;;8.97;52.51
17764;BME280;22245;52.832;13.816;2023-04-19T08:35:25;102258.28;;;9.06;52.19
17764;BME280;22245;52.832;13.816;2023-04-19T08:38:47;102269.53;;;9.11;52.21
17764;BME280;22245;52.832;13.816;2023-04-19T08:42:25;102260.28;;;9.19;52.05
17764;BME280;22245;52.832;13.816;2023-04-19T08:45:57;102262.66;;;9.23;51.07
17764;BME280;22245;52.832;13.816;2023-04-19T08:49:20;102253.84;;;9.23;50.54
17764;BME280;22245;52.832;13.816;2023-04-19T08:52:42;102257.63;;;9.19;50.52
17764;BME280;22245;52.832;13.816;2023-04-19T08:56:16;102270.03;;;9.18;51.46
17764;BME280;22245;52.832;13.816;2023-04-19T08:59:53;102270.91;;;9.19;51.18
17764;BME280;22245;52.832;13.816;2023-04-19T09:03:18;102264.56;;;9.21;52.97
17764;BME280;22245;52.832;13.816;2023-04-19T09:06:41;102251.78;;;9.28;51.22
17764;BME280;22245;52.832;13.816;2023-04-19T09:10:04;102250.78;;;9.31;50.98
17764;BME280;22245;52.832;13.816;2023-04-19T09:13:28;102247.00;;;9.35;51.71
17764;BME280;22245;52.832;13.816;2023-04-19T09:16:49;102237.81;;;9.40;52.09
17764;BME280;22245;52.832;13.816;2023-04-19T09:20:14;102236.44;;;9.49;52.05
17764;BME280;22245;52.832;13.816;2023-04-19T09:23:45;102239.44;;;9.59;51.38
17764;BME280;22245;52.832;13.816;2023-04-19T09:27:07;102224.66;;;9.69;50.80
17764;BME280;22245;52.832;13.816;2023-04-19T09:30:31;102232.19;;;9.77;49.65
17764;BME280;22245;52.832;13.816;2023-04-19T09:34:11;102226.09;;;9.75;49.44
17764;BME280;22245;52.832;13.816;2023-04-19T09:37:35;102229.59;;;9.76;49.02
17764;BME280;22245;52.832;13.816;2023-04-19T09:41:10;102213.81;;;9.73;48.37
17764;BME280;22245;52.832;13.816;2023-04-19T09:44:32;102219.84;;;9.76;49.77
17764;BME280;22245;52.832;13.816;2023-04-19T09:48:14;102210.47;;;9.85;49.40
17764;BME280;22245;52.832;13.816;2023-04-19T09:51:39;102219.97;;;9.89;49.55
17764;BME280;22245;52.832;13.816;2023-04-19T09:55:04;102217.31;;;9.89;49.85
17764;BME280;22245;52.832;13.816;2023-04-19T09:58:44;102216.38;;;9.90;50.04
17764;BME280;22245;52.832;13.816;2023-04-19T10:02:14;102207.06;;;9.97;49.12
17764;BME280;22245;52.832;13.816;2023-04-19T10:05:38;102198.22;;;9.97;50.07
17764;BME280;22245;52.832;13.816;2023-04-19T10:09:01;102205.00;;;10.03;49.52
17764;BME280;22245;52.832;13.816;2023-04-19T10:12:26;102216.31;;;10.06;49.16
17764;BME280;22245;52.832;13.816;2023-04-19T10:15:51;102203.78;;;10.08;49.04
17764;BME280;22245;52.832;13.816;2023-04-19T10:19:24;102211.47;;;10.13;48.83
17764;BME280;22245;52.832;13.816;2023-04-19T10:22:46;102184.00;;;10.12;48.81
17764;BME280;22245;52.832;13.816;2023-04-19T10:26:08;102195.13;;;10.19;48.99
17764;BME280;22245;52.832;13.816;2023-04-19T10:29:57;102180.69;;;10.23;50.01
17764;BME280;22245;52.832;13.816;2023-04-19T10:33:24;102180.22;;;10.31;48.87
17764;BME280;22245;52.832;13.816;2023-04-19T10:36:46;102165.56;;;10.38;49.27
17764;BME280;22245;52.832;13.816;2023-04-19T10:40:08;102165.88;;;10.48;49.21
17764;BME280;22245;52.832;13.816;2023-04-19T10:43:33;102186.53;;;10.59;48.05
17764;BME280;22245;52.832;13.816;2023-04-19T10:46:57;102152.19;;;10.69;48.11
17764;BME280;22245;52.832;13.816;2023-04-19T10:50:22;102166.84;;;10.76;47.89
17764;BME280;22245;52.832;13.816;2023-04-19T10:53:53;102160.28;;;10.82;47.51
17764;BME280;22245;52.832;13.816;2023-04-19T10:57:15;102161.09;;;10.82;48.26
17764;BME280;22245;52.832;13.816;2023-04-19T11:00:36;102165.88;;;10.77;47.39
17764;BME280;22245;52.832;13.816;2023-04-19T11:04:07;102162.53;;;10.74;47.57
17764;BME280;22245;52.832;13.816;2023-04-19T11:07:36;102165.41;;;10.70;46.99
17764;BME280;22245;52.832;13.816;2023-04-19T11:10:59;102158.28;;;10.71;46.97
17764;BME280;22245;52.832;13.816;2023-04-19T11:14:20;102142.19;;;10.73;47.19
17764;BME280;22245;52.832;13.816;2023-04-19T11:17:42;102147.41;;;10.74;47.39
17764;BME280;22245;52.832;13.816;2023-04-19T11:21:05;102147.09;;;10.79;47.29
17764;BME280;22245;52.832;13.816;2023-04-19T11:24:27;102127.63;;;10.78;47.96
17764;BME280;22245;52.832;13.816;2023-04-19T11:27:50;102132.75;;;10.81;46.80
17764;BME280;22245;52.832;13.816;2023-04-19T11:31:12;102138.19;;;10.80;46.19
17764;BME280;22245;52.832;13.816;2023-04-19T11:34:37;102123.13;;;10.79;45.56
17764;BME280;22245;52.832;13.816;2023-04-19T11:38:00;102119.53;;;10.80;45.39
17764;BME280;22245;52.832;13.816;2023-04-19T11:41:24;102122.09;;;10.81;45.38
17764;BME280;22245;52.832;13.816;2023-04-19T11:44:50;102119.16;;;10.71;44.36
17764;BME280;22245;52.832;13.816;2023-04-19T11:48:13;102099.66;;;10.71;44.60
17764;BME280;22245;52.832;13.816;2023-04-19T11:51:41;102100.50;;;10.71;43.80
17764;BME280;22245;52.832;13.816;2023-04-19T11:55:19;102090.72;;;10.72;43.60
17764;BME280;22245;52.832;13.816;2023-04-19T11:58:42;102087.94;;;10.74;43.21
17764;BME280;22245;52.832;13.816;2023-04-19T12:02:08;102081.44;;;10.78;43.08
17764;BME280;22245;52.832;13.816;2023-04-19T12:05:30;102080.94;;;10.85;42.56
17764;BME280;22245;52.832;13.816;2023-04-19T12:08:54;102073.31;;;10.94;42.69
17764;BME280;22245;52.832;13.816;2023-04-19T12:12:31;102041.56;;;11.04;42.94
17764;BME280;22245;52.832;13.816;2023-04-19T12:15:54;102050.56;;;11.15;43.28
17764;BME280;22245;52.832;13.816;2023-04-19T12:19:17;102056.16;;;11.25;42.03
17764;BME280;22245;52.832;13.816;2023-04-19T12:22:42;102050.06;;;11.36;41.67
17764;BME280;22245;52.832;13.816;2023-04-19T12:26:04;102039.75;;;11.44;40.00
17764;BME280;22245;52.832;13.816;2023-04-19T12:29:28;102050.00;;;11.51;39.19
17764;BME280;22245;52.832;13.816;2023-04-19T12:32:49;102043.41;;;11.56;40.14
17764;BME280;22245;52.832;13.816;2023-04-19T12:36:14;102040.81;;;11.55;40.66
17764;BME280;22245;52.832;13.816;2023-04-19T12:39:36;102026.59;;;11.54;41.64
17764;BME280;22245;52.832;13.816;2023-04-19T12:42:58;102037.19;;;11.56;41.41
17764;BME280;22245;52.832;13.816;2023-04-19T12:46:21;102027.16;;;11.60;40.75
17764;BME280;22245;52.832;13.816;2023-04-19T12:49:43;102024.16;;;11.64;40.87
17764;BME280;22245;52.832;13.816;2023-04-19T12:53:04;102047.13;;;11.67;42.81
17764;BME280;22245;52.832;13.816;2023-04-19T12:56:26;102011.34;;;11.69;42.02
17764;BME280;22245;52.832;13.816;2023-04-19T12:59:48;102015.72;;;11.70;42.46
17764;BME280;22245;52.832;13.816;2023-04-19T13:03:11;102021.94;;;11.71;42.49
17764;BME280;22245;52.832;13.816;2023-04-19T13:06:37;102023.72;;;11.70;42.81
17764;BME280;22245;52.832;13.816;2023-04-19T13:09:59;102027.38;;;11.56;42.94
17764;BME280;22245;52.832;13.816;2023-04-19T13:13:21;102026.94;;;11.50;43.33
17764;BME280;22245;52.832;13.816;2023-04-19T13:16:43;102003.97;;;11.34;42.97
17764;BME280;22245;52.832;13.816;2023-04-19T13:20:08;101999.06;;;11.28;43.81
17764;BME280;22245;52.832;13.816;2023-04-19T13:23:31;101996.59;;;11.25;43.69
17764;BME280;22245;52.832;13.816;2023-04-19T13:26:53;101999.41;;;11.23;43.72
17764;BME280;22245;52.832;13.816;2023-04-19T13:30:15;101990.84;;;11.18;43.48
17764;BME280;22245;52.832;13.816;2023-04-19T13:33:36;101990.28;;;11.13;44.22
17764;BME280;22245;52.832;13.816;2023-04-19T13:36:59;101986.56;;;11.15;45.39
17764;BME280;22245;52.832;13.816;2023-04-19T13:40:21;101977.72;;;11.15;45.83
17764;BME280;22245;52.832;13.816;2023-04-19T13:43:42;101975.25;;;11.12;45.16
17764;BME280;22245;52.832;13.816;2023-04-19T13:47:04;101957.34;;;11.14;45.68
17764;BME280;22245;52.832;13.816;2023-04-19T13:50:27;101959.69;;;11.19;46.52
17764;BME280;22245;52.832;13.816;2023-04-19T13:53:50;101952.88;;;11.27;46.28
17764;BME280;22245;52.832;13.816;2023-04-19T13:57:11;101952.34;;;11.35;45.92
17764;BME280;22245;52.832;13.816;2023-04-19T14:00:33;101960.97;;;11.26;45.93
17764;BME280;22245;52.832;13.816;2023-04-19T14:03:55;101957.91;;;11.19;44.79
17764;BME280;22245;52.832;13.816;2023-04-19T14:07:17;101959.69;;;11.06;45.07
17764;BME280;22245;52.832;13.816;2023-04-19T14:10:40;101969.56;;;10.91;45.67
17764;BME280;22245;52.832;13.816;2023-04-19T14:14:02;101962.72;;;10.86;46.53
17764;BME280;22245;52.832;13.816;2023-04-19T14:17:24;101960.69;;;10.77;46.95
17764;BME280;22245;52.832;13.816;2023-04-19T14:20:45;101971.97;;;10.68;46.61
17764;BME280;22245;52.832;13.816;2023-04-19T14:24:07;101991.50;;;10.54;46.87
17764;BME280;22245;52.832;13.816;2023-04-19T14:27:31;101982.22;;;10.32;49.51
17764;BME280;22245;52.832;13.816;2023-04-19T14:30:52;102000.59;;;10.08;52.28
17764;BME280;22245;52.832;13.816;2023-04-19T14:34:15;101995.28;;;9.79;56.08
17764;BME280;22245;52.832;13.816;2023-04-19T14:37:37;101996.31;;;9.62;57.72
17764;BME280;22245;52.832;13.816;2023-04-19T14:40:59;101998.91;;;9.49;59.27
17764;BME280;22245;52.832;13.816;2023-04-19T14:44:22;101993.66;;;9.33;60.24
17764;BME280;22245;52.832;13.816;2023-04-19T14:47:44;101982.72;;;9.23;60.56
17764;BME280;22245;52.832;13.816;2023-04-19T14:51:06;101985.16;;;9.11;61.08
17764;BME280;22245;52.832;13.816;2023-04-19T14:54:28;101976.13;;;8.83;62.16
17764;BME280;22245;52.832;13.816;2023-04-19T14:57:49;101979.06;;;8.63;63.30
17764;BME280;22245;52.832;13.816;2023-04-19T15:01:13;101970.88;;;8.51;64.70
17764;BME280;22245;52.832;13.816;2023-04-19T15:04:35;101972.22;;;8.43;64.30
17764;BME280;22245;52.832;13.816;2023-04-19T15:08:00;101975.16;;;8.38;64.13
17764;BME280;22245;52.832;13.816;2023-04-19T15:11:22;101971.19;;;8.29;64.90
17764;BME280;22245;52.832;13.816;2023-04-19T15:14:43;101964.69;;;8.19;65.75
17764;BME280;22245;52.832;13.816;2023-04-19T15:18:07;101952.44;;;8.16;67.05
17764;BME280;22245;52.832;13.816;2023-04-19T15:21:28;101951.59;;;8.16;67.13
17764;BME280;22245;52.832;13.816;2023-04-19T15:24:50;101948.66;;;8.04;67.12
17764;BME280;22245;52.832;13.816;2023-04-19T15:28:12;101950.72;;;7.99;67.27
17764;BME280;22245;52.832;13.816;2023-04-19T15:31:33;101942.22;;;7.92;67.75
17764;BME280;22245;52.832;13.816;2023-04-19T15:34:57;101934.72;;;7.85;68.20
17764;BME280;22245;52.832;13.816;2023-04-19T15:38:20;101944.78;;;7.78;68.70
17764;BME280;22245;52.832;13.816;2023-04-19T15:41:42;101929.06;;;7.75;69.49
17764;BME280;22245;52.832;13.816;2023-04-19T15:45:04;101927.16;;;7.77;69.40
17764;BME280;22245;52.832;13.816;2023-04-19T15:48:27;101924.69;;;7.74;69.40
17764;BME280;22245;52.832;13.816;2023-04-19T15:51:50;101913.97;;;7.75;70.66
17764;BME280;22245;52.832;13.816;2023-04-19T15:55:12;101906.91;;;7.76;70.87
17764;BME280;22245;52.832;13.816;2023-04-19T15:58:34;101916.72;;;7.74;70.51
17764;BME280;22245;52.832;13.816;2023-04-19T16:01:56;101899.13;;;7.73;70.66
17764;BME280;22245;52.832;13.816;2023-04-19T16:05:18;101922.09;;;7.72;71.21
17764;BME280;22245;52.832;13.816;2023-04-19T16:08:41;101908.59;;;7.77;71.57
17764;BME280;22245;52.832;13.816;2023-04-19T16:12:03;101903.47;;;7.74;71.50
17764;BME280;22245;52.832;13.816;2023-04-19T16:15:25;101907.50;;;7.81;71.86
17764;BME280;22245;52.832;13.816;2023-04-19T16:18:46;101897.75;;;7.81;72.14
17764;BME280;22245;52.832;13.816;2023-04-19T16:22:08;101913.50;;;7.85;72.07
17764;BME280;22245;52.832;13.816;2023-04-19T16:25:32;101901.19;;;7.84;72.61
17764;BME280;22245;52.832;13.816;2023-04-19T16:28:54;101907.44;;;7.82;73.01
17764;BME280;22245;52.832;13.816;2023-04-19T16:32:18;101908.25;;;7.83;73.20
17764;BME280;22245;52.832;13.816;2023-04-19T16:35:40;101908.53;;;7.78;73.33
17764;BME280;22245;52.832;13.816;2023-04-19T16:39:02;101918.78;;;7.68;74.53
17764;BME280;22245;52.832;13.816;2023-04-19T16:42:25;101919.28;;;7.59;74.66
17764;BME280;22245;52.832;13.816;2023-04-19T16:45:47;101911.41;;;7.58;75.62
17764;BME280;22245;52.832;13.816;2023-04-19T16:49:09;101923.47;;;7.63;76.13
17764;BME280;22245;52.832;13.816;2023-04-19T16:56:27;101922.03;;;7.74;76.21
17764;BME280;22245;52.832;13.816;2023-04-19T16:59:50;101925.03;;;7.67;75.92
17764;BME280;22245;52.832;13.816;2023-04-19T17:07:37;101926.13;;;7.63;77.99
17764;BME280;22245;52.832;13.816;2023-04-19T17:10:59;101925.09;;;7.66;77.33
17764;BME280;22245;52.832;13.816;2023-04-19T17:14:22;101928.84;;;7.62;77.82
17764;BME280;22245;52.832;13.816;2023-04-19T17:17:45;101923.56;;;7.62;78.30
17764;BME280;22245;52.832;13.816;2023-04-19T17:21:07;101923.47;;;7.63;77.87
17764;BME280;22245;52.832;13.816;2023-04-19T17:24:32;101927.47;;;7.55;77.96
17764;BME280;22245;52.832;13.816;2023-04-19T17:27:53;101930.91;;;7.57;78.86
17764;BME280;22245;52.832;13.816;2023-04-19T17:31:15;101936.91;;;7.60;79.10
17764;BME280;22245;52.832;13.816;2023-04-19T17:34:39;101933.63;;;7.55;78.70
17764;BME280;22245;52.832;13.816;2023-04-19T17:38:01;101928.25;;;7.57;79.06
17764;BME280;22245;52.832;13.816;2023-04-19T17:49:44;101930.84;;;7.58;79.24
17764;BME280;22245;52.832;13.816;2023-04-19T17:53:05;101928.19;;;7.58;79.81
17764;BME280;22245;52.832;13.816;2023-04-19T17:56:27;101942.44;;;7.56;80.03
17764;BME280;22245;52.832;13.816;2023-04-19T17:59:49;101942.59;;;7.52;80.11